Comber, Canada
Current Conditions -  °F | °C
As of 9:00 PM on Monday 20 Oct 2014 (Local Time) from CYQG Reporting Station
Broken Clouds Broken Clouds  
Wind Chill: 54°   Ceiling: 7100
Heat Index: 54°   Visibility: 15mi
Dew Point: 48°   Wind: 8mph
Humidity: 82%   Direction: 270°W
Pressure: 29.83"   Gusts: NA
Location:  42.23°N, 82.55°W
Report Text: CYQG 210100Z 27007KT 15SM SCT038 BKN071 12/09 A2983 RMK SC3AC4 SLP105
Loading
Personal Weather Stations






























Interactive Weather Map
Tropical Storm Tracking
New forecast layout! Learn more

10-Day Weather Forecast

Advertisements
Track Severe Weather on mobile